This is the latest recevied weather packets stored in our database for station/object KC2BRB-1. If no packets are shown the sender has not sent any weather packets the latest 10 day(s).
| Time | Temp. | Humidity | Pressure | Rain* | Wind** | Luminosity | Snow |
|---|---|---|---|---|---|---|---|
| 1777750545 | 21.67° C | 85% | 1008.7 hPa | 1.52 mm | - | - | - |
| 1777750354 | 21.67° C | 85% | 1008.7 hPa | 1.52 mm | - | - | - |
| 1777750308 | 21.67° C | 85% | 1008.7 hPa | 1.52 mm | - | - | - |
| 1777750054 | 21.67° C | 85% | 1008.7 hPa | 1.52 mm | - | - | - |
| 1777750022 | 22.78° C | 84% | 1008.7 hPa | 1.02 mm | - | - | - |
| 1777749753 | 22.78° C | 84% | 1008.7 hPa | 1.02 mm | - | - | - |
| 1777749699 | 25° C | 76% | 1008.2 hPa | 1.27 mm | - | - | - |
| 1777749453 | 22.78° C | 84% | 1008.7 hPa | 1.02 mm | - | - | - |
| 1777749153 | 25° C | 76% | 1008.2 hPa | 1.27 mm | - | - | - |
| 1777748853 | 25° C | 76% | 1008.2 hPa | 1.27 mm | - | - | - |
| 1777748553 | 26.67° C | 82% | 1008.3 hPa | 1.02 mm | - | - | - |
| 1777748253 | 26.67° C | 82% | 1008.3 hPa | 1.02 mm | - | - | - |
| 1777747953 | 26.11° C | 82% | 1008.3 hPa | 1.02 mm | - | - | - |
| 1777747820 | 26.11° C | 82% | 1008.3 hPa | 1.02 mm | - | - | - |
| 1777747653 | 26.11° C | 82% | 1008.3 hPa | 1.02 mm | - | - | - |
| 1777747555 | 26.11° C | 82% | 1008.7 hPa | 1.02 mm | - | - | - |
| 1777747353 | 26.11° C | 82% | 1008.7 hPa | 1.02 mm | - | - | - |
| 1777747221 | 26.11° C | 82% | 1008.7 hPa | 1.02 mm | - | - | - |
| 1777747053 | 26.11° C | 82% | 1008.7 hPa | 1.02 mm | - | - | - |
| 1777746850 | 26.11° C | 83% | 1008.4 hPa | 1.27 mm | - | - | - |
| 1777746754 | 26.11° C | 83% | 1008.4 hPa | 1.27 mm | - | - | - |
| 1777746640 | 26.11° C | 83% | 1008.4 hPa | 1.27 mm | - | - | - |
| 1777746453 | 26.11° C | 83% | 1008.4 hPa | 1.27 mm | - | - | - |
| 1777746402 | 26.11° C | 83% | 1008.4 hPa | 3.05 mm | - | - | - |
| 1777746198 | 26.11° C | 83% | 1008.4 hPa | 3.05 mm | - | - | - |
* Rain latest hour (hover to see other rain measurements)
** Current wind speed in m/s (hover to see current wind gust speed)